Time;durP1;ratioP1;P1;durP2;ratioP2;P2;SDS_P1;SDS_P2;PMS_P1;PMS_P2;Temp;Humidity;BMP_temperature;BMP_pressure;BME280_temperature;BME280_humidity;BME280_pressure;Samples;Min_cycle;Max_cycle;Signal;HPM_P1;HPM_P2
2021/10/14 00:01:15;;;;;;;;;;;;;;;-144.99;100.00;52395.09;5033354;28;19977;-69
2021/10/14 00:03:42;;;;;;;;;;;;;;;-144.99;100.00;52435.88;5033370;28;19998;-69
2021/10/14 00:06:08;;;;;;;;;;;;;;;-144.99;100.00;52411.41;5033619;28;19985;-69
2021/10/14 00:08:35;;;;;;;;;;;;;;;-144.99;100.00;52399.19;5027897;28;20423;-70
2021/10/14 00:11:01;;;;;;;;;;;;;;;-144.99;100.00;52380.84;5018603;28;20380;-70
2021/10/14 00:13:29;;;;;;;;;;;;;;;-144.99;100.00;52413.44;5033800;28;20002;-62
2021/10/14 00:15:55;;;;;;;;;;;;;;;-144.99;100.00;52407.31;5033497;28;19992;-69
2021/10/14 00:18:21;;;;;;;;;;;;;;;-144.99;100.00;52403.25;5029088;28;19981;-69
2021/10/14 00:20:48;;;;;;;;;;;;;;;-144.99;100.00;52386.94;5031707;28;19989;-69
2021/10/14 00:23:14;;;;;;;;;;;;;;;-144.99;100.00;52386.94;5032907;28;20458;-69
2021/10/14 00:25:41;;;;;;;;;;;;;;;-144.99;100.00;52403.25;5033207;28;19978;-69
2021/10/14 00:28:07;;;;;;;;;;;;;;;-144.99;100.00;52425.66;5030538;28;19992;-69
2021/10/14 00:30:35;;;;;;;;;;;;;;;-144.99;100.00;52415.47;5029016;28;19985;-69
2021/10/14 00:33:01;;;;;;;;;;;;;;;-144.99;100.00;52399.19;5033069;28;20017;-69
2021/10/14 00:35:27;;;;;;;;;;;;;;;-144.99;100.00;52370.63;5032994;28;20084;-69
2021/10/14 00:37:54;;;;;;;;;;;;;;;-144.99;100.00;52419.56;5032838;28;19988;-69
2021/10/14 00:40:20;;;;;;;;;;;;;;;-144.99;100.00;52370.63;5029891;28;19996;-65
2021/10/14 00:42:47;;;;;;;;;;;;;;;-144.99;100.00;52419.56;5046608;28;20001;-65
2021/10/14 00:45:13;;;;;;;;;;;;;;;-144.99;100.00;52413.44;5049580;28;19987;-65
2021/10/14 00:47:41;;;;;;;;;;;;;;;-144.99;100.00;52384.91;5045122;28;19982;-65
2021/10/14 00:50:08;;;;;;;;;;;;;;;-144.99;100.00;52403.25;5032511;28;19988;-64
2021/10/14 00:52:35;;;;;;;;;;;;;;;-144.99;100.00;52403.25;5034320;28;19998;-66
2021/10/14 00:55:02;;;;;;;;;;;;;;;-144.99;100.00;52386.94;5038299;28;19981;-65
2021/10/14 00:57:29;;;;;;;;;;;;;;;-144.99;100.00;52374.72;5033832;28;19988;-65
2021/10/14 00:59:55;;;;;;;;;;;;;;;-144.99;100.00;52391.03;5031292;28;19985;-65
2021/10/14 01:02:22;;;;;;;;;;;;;;;-144.99;100.00;52399.19;5041357;28;19995;-65
2021/10/14 01:04:51;;;;;;;;;;;;;;;-144.99;100.00;52423.63;5032625;28;19993;-65
2021/10/14 01:07:18;;;;;;;;;;;;;;;-144.99;100.00;52427.72;5032394;28;19987;-64
2021/10/14 01:09:44;;;;;;;;;;;;;;;-144.99;100.00;52374.72;5027072;28;19974;-64
2021/10/14 01:12:10;;;;;;;;;;;;;;;-144.99;100.00;52409.38;5031821;28;20020;-65
2021/10/14 01:14:37;;;;;;;;;;;;;;;-144.99;100.00;52415.47;5032335;28;20005;-65
2021/10/14 01:17:03;;;;;;;;;;;;;;;-144.99;100.00;52388.97;5035407;28;19981;-65
2021/10/14 01:19:30;;;;;;;;;;;;;;;-144.99;100.00;52423.63;5036376;28;20005;-64
2021/10/14 01:21:57;;;;;;;;;;;;;;;-144.99;100.00;52399.19;5037269;28;20032;-65
2021/10/14 01:24:24;;;;;;;;;;;;;;;-144.99;100.00;52435.88;5037593;28;19993;-64
2021/10/14 01:26:51;;;;;;;;;;;;;;;-144.99;100.00;52399.19;5038029;28;20188;-65
2021/10/14 01:29:17;;;;;;;;;;;;;;;-144.99;100.00;52395.09;5028732;28;19982;-65
2021/10/14 01:31:44;;;;;;;;;;;;;;;-144.99;100.00;52393.06;5037021;28;20008;-65
2021/10/14 01:34:10;;;;;;;;;;;;;;;-144.99;100.00;52358.41;5036393;28;20357;-66
2021/10/14 01:36:36;;;;;;;;;;;;;;;-144.99;100.00;52419.56;5034760;28;20243;-65
2021/10/14 01:39:04;;;;;;;;;;;;;;;-144.99;100.00;52407.31;5029599;28;19981;-66
2021/10/14 01:41:31;;;;;;;;;;;;;;;-144.99;100.00;52380.84;5032430;28;20013;-66
2021/10/14 01:43:57;;;;;;;;;;;;;;;-144.99;100.00;52386.94;5032100;28;19998;-66
2021/10/14 01:46:24;;;;;;;;;;;;;;;-144.99;100.00;52419.56;5031902;28;19984;-68
2021/10/14 01:48:52;;;;;;;;;;;;;;;-144.99;100.00;52391.03;5019550;28;20284;-67
2021/10/14 01:51:18;;;;;;;;;;;;;;;-144.99;100.00;52407.31;5031024;28;20049;-67
2021/10/14 01:53:45;;;;;;;;;;;;;;;-144.99;100.00;52433.81;5031695;28;19973;-67
2021/10/14 01:56:13;;;;;;;;;;;;;;;-144.99;100.00;52431.78;5031223;28;20177;-67
2021/10/14 02:01:13;;;;;;;;;;;;;;;-144.99;100.00;52431.78;5052609;28;19985;-60
2021/10/14 02:03:39;;;;;;;;;;;;;;;-144.99;100.00;52411.41;5045481;28;20000;-60
2021/10/14 02:06:06;;;;;;;;;;;;;;;-144.99;100.00;52382.88;5032423;28;19993;-61
2021/10/14 02:08:32;;;;;;;;;;;;;;;-144.99;100.00;52427.72;5040367;28;20556;-61
2021/10/14 02:10:58;;;;;;;;;;;;;;;-144.99;100.00;52358.41;5042070;28;19982;-60
2021/10/14 02:13:26;;;;;;;;;;;;;;;-144.99;100.00;52419.56;5029276;28;19990;-60
2021/10/14 02:15:53;;;;;;;;;;;;;;;-144.99;100.00;52407.31;5029176;28;19985;-60
2021/10/14 02:18:19;;;;;;;;;;;;;;;-144.99;100.00;52382.88;5040654;28;19977;-60
2021/10/14 02:20:45;;;;;;;;;;;;;;;-144.99;100.00;52399.19;5047930;28;20000;-60
2021/10/14 02:23:11;;;;;;;;;;;;;;;-144.99;100.00;52403.25;5027500;28;20111;-60
2021/10/14 02:25:38;;;;;;;;;;;;;;;-144.99;100.00;52407.31;5025938;28;20349;-60
2021/10/14 02:28:04;;;;;;;;;;;;;;;-144.99;100.00;52378.78;5028398;28;19978;-60
2021/10/14 02:30:32;;;;;;;;;;;;;;;-144.99;100.00;52407.31;5029331;28;20424;-60
2021/10/14 02:32:59;;;;;;;;;;;;;;;-144.99;100.00;52401.22;5028965;28;20007;-60
2021/10/14 02:35:25;;;;;;;;;;;;;;;-144.99;100.00;52395.09;5028891;28;19962;-61
2021/10/14 02:37:51;;;;;;;;;;;;;;;-144.99;100.00;52423.63;5037508;28;19977;-60
2021/10/14 02:40:18;;;;;;;;;;;;;;;-144.99;100.00;52374.72;5048622;28;19995;-60
2021/10/14 02:42:44;;;;;;;;;;;;;;;-144.99;100.00;52393.06;5047826;28;19998;-60
2021/10/14 02:45:11;;;;;;;;;;;;;;;-144.99;100.00;52439.94;5031154;28;20001;-60
2021/10/14 02:47:38;;;;;;;;;;;;;;;-144.99;100.00;52366.56;5028409;28;19974;-60
2021/10/14 02:50:05;;;;;;;;;;;;;;;-144.99;100.00;52354.34;5042306;28;20422;-60
2021/10/14 02:52:31;;;;;;;;;;;;;;;-144.99;100.00;52403.25;5038812;28;20001;-62
2021/10/14 02:54:58;;;;;;;;;;;;;;;-144.99;100.00;52415.47;5048722;28;20458;-62
2021/10/14 02:57:24;;;;;;;;;;;;;;;-144.99;100.00;52370.63;5040502;28;19985;-61
2021/10/14 02:59:50;;;;;;;;;;;;;;;-144.99;100.00;52391.03;5046433;28;19992;-61
2021/10/14 03:02:17;;;;;;;;;;;;;;;-144.99;100.00;52378.78;5031247;28;20462;-61
2021/10/14 03:04:44;;;;;;;;;;;;;;;-144.99;100.00;52370.63;5028578;28;20307;-59
2021/10/14 03:07:11;;;;;;;;;;;;;;;-144.99;100.00;52374.72;5026824;28;19981;-60
2021/10/14 03:09:37;;;;;;;;;;;;;;;-144.99;100.00;52386.94;5019257;28;20021;-60
2021/10/14 03:12:04;;;;;;;;;;;;;;;-144.99;100.00;52366.56;5027873;28;20001;-60
2021/10/14 03:14:32;;;;;;;;;;;;;;;-144.99;100.00;52378.78;5031713;28;19993;-60
2021/10/14 03:16:58;;;;;;;;;;;;;;;-144.99;100.00;52368.59;5031736;28;19986;-60
2021/10/14 03:19:24;;;;;;;;;;;;;;;-144.99;100.00;52425.66;5042218;28;19988;-60
2021/10/14 03:21:52;;;;;;;;;;;;;;;-144.99;100.00;52395.09;5034960;28;19993;-58
2021/10/14 03:24:18;;;;;;;;;;;;;;;-144.99;100.00;52382.88;5031956;28;19997;-59
2021/10/14 03:26:45;;;;;;;;;;;;;;;-144.99;100.00;52415.47;5036009;28;19986;-58
2021/10/14 03:29:11;;;;;;;;;;;;;;;-144.99;100.00;52382.88;5050818;28;20083;-58
2021/10/14 03:31:37;;;;;;;;;;;;;;;-144.99;100.00;52399.19;5030530;28;20004;-58
2021/10/14 03:34:04;;;;;;;;;;;;;;;-144.99;100.00;52366.56;5029931;28;20004;-58
2021/10/14 03:36:30;;;;;;;;;;;;;;;-144.99;100.00;52382.88;5030284;28;19978;-58
2021/10/14 03:38:58;;;;;;;;;;;;;;;-144.99;100.00;52368.59;5031893;28;19982;-60
2021/10/14 03:41:24;;;;;;;;;;;;;;;-144.99;100.00;52413.44;5034123;28;19993;-60
2021/10/14 03:43:51;;;;;;;;;;;;;;;-144.99;100.00;52399.19;5036671;28;19984;-61
2021/10/14 03:46:17;;;;;;;;;;;;;;;-144.99;100.00;52380.84;5031995;28;19974;-59
2021/10/14 03:48:43;;;;;;;;;;;;;;;-144.99;100.00;52348.22;5018665;28;19982;-63
2021/10/14 03:51:10;;;;;;;;;;;;;;;-144.99;100.00;52415.47;5030825;28;19978;-62
2021/10/14 03:53:36;;;;;;;;;;;;;;;-144.99;100.00;52427.72;5031801;28;20316;-63
2021/10/14 03:56:04;;;;;;;;;;;;;;;-144.99;100.00;52419.56;5031542;28;19969;-62
2021/10/14 03:58:31;;;;;;;;;;;;;;;-144.99;100.00;52374.72;5031942;28;19990;-62
2021/10/14 04:00:57;;;;;;;;;;;;;;;-144.99;100.00;52399.19;5031056;28;19985;-62
2021/10/14 04:03:23;;;;;;;;;;;;;;;-144.99;100.00;52378.78;5031670;28;20271;-62
2021/10/14 04:05:50;;;;;;;;;;;;;;;-144.99;100.00;52401.22;5031304;28;19998;-62
2021/10/14 04:08:16;;;;;;;;;;;;;;;-144.99;100.00;52342.09;5031865;28;19981;-62
2021/10/14 04:10:42;;;;;;;;;;;;;;;-144.99;100.00;52362.50;5031388;28;20342;-61
2021/10/14 04:13:10;;;;;;;;;;;;;;;-144.99;100.00;52386.94;5030966;28;20002;-61
2021/10/14 04:15:36;;;;;;;;;;;;;;;-144.99;100.00;52415.47;5031692;28;19986;-67
2021/10/14 04:18:03;;;;;;;;;;;;;;;-144.99;100.00;52374.72;5031498;28;20000;-62
2021/10/14 04:20:30;;;;;;;;;;;;;;;-144.99;100.00;52399.19;5031074;28;19982;-64
2021/10/14 04:22:58;;;;;;;;;;;;;;;-144.99;100.00;52395.09;5030507;28;19997;-64
2021/10/14 04:25:26;;;;;;;;;;;;;;;-144.99;100.00;52413.44;5025649;28;20001;-64
2021/10/14 04:27:52;;;;;;;;;;;;;;;-144.99;100.00;52370.63;5029658;28;19981;-64
2021/10/14 04:30:20;;;;;;;;;;;;;;;-144.99;100.00;52362.50;5044491;28;20242;-64
2021/10/14 04:32:47;;;;;;;;;;;;;;;-144.99;100.00;52378.78;5051088;28;20005;-64
2021/10/14 04:35:14;;;;;;;;;;;;;;;-144.99;100.00;52391.03;5042737;28;19985;-63
2021/10/14 04:37:41;;;;;;;;;;;;;;;-144.99;100.00;52356.38;5031502;28;19981;-64
2021/10/14 04:40:08;;;;;;;;;;;;;;;-144.99;100.00;52409.38;5044807;28;20383;-63
2021/10/14 04:42:35;;;;;;;;;;;;;;;-144.99;100.00;52415.47;5050620;28;20008;-65
2021/10/14 04:45:01;;;;;;;;;;;;;;;-144.99;100.00;52399.19;5034407;28;19994;-65
2021/10/14 04:47:29;;;;;;;;;;;;;;;-144.99;100.00;52395.09;5031048;28;19985;-66
2021/10/14 04:49:55;;;;;;;;;;;;;;;-144.99;100.00;52350.25;5045678;28;20031;-66
2021/10/14 04:52:21;;;;;;;;;;;;;;;-144.99;100.00;52378.78;5041635;28;20471;-66
2021/10/14 04:54:48;;;;;;;;;;;;;;;-144.99;100.00;52386.94;5029887;28;20015;-66
2021/10/14 04:57:14;;;;;;;;;;;;;;;-144.99;100.00;52366.56;5029952;28;19982;-66
2021/10/14 04:59:40;;;;;;;;;;;;;;;-144.99;100.00;52376.75;5033127;28;19992;-65
2021/10/14 05:02:07;;;;;;;;;;;;;;;-144.99;100.00;52407.31;5035071;28;20463;-66
2021/10/14 05:04:34;;;;;;;;;;;;;;;-144.99;100.00;52346.19;5031165;28;20342;-68
2021/10/14 05:07:01;;;;;;;;;;;;;;;-144.99;100.00;52393.06;5030104;28;19981;-66
2021/10/14 05:09:27;;;;;;;;;;;;;;;-144.99;100.00;52354.34;5038366;28;19996;-67
2021/10/14 05:11:54;;;;;;;;;;;;;;;-144.99;100.00;52358.41;5035247;28;20139;-67
2021/10/14 05:14:20;;;;;;;;;;;;;;;-144.99;100.00;52374.72;5030366;28;19986;-67
2021/10/14 05:16:47;;;;;;;;;;;;;;;-144.99;100.00;52342.09;5029800;28;20426;-67
2021/10/14 05:19:13;;;;;;;;;;;;;;;-144.99;100.00;52399.19;3986931;28;10000845;-67
2021/10/14 05:21:41;;;;;;;;;;;;;;;-144.99;100.00;52444.03;5027718;28;19997;-68
2021/10/14 05:24:07;;;;;;;;;;;;;;;-144.99;100.00;52399.19;5027714;28;19978;-67
2021/10/14 05:26:34;;;;;;;;;;;;;;;-144.99;100.00;52407.31;5030381;28;20000;-67
2021/10/14 05:29:00;;;;;;;;;;;;;;;-144.99;100.00;52427.72;5028880;28;20182;-67
2021/10/14 05:31:27;;;;;;;;;;;;;;;-144.99;100.00;52415.47;5026656;28;19997;-68
2021/10/14 05:33:54;;;;;;;;;;;;;;;-144.99;100.00;52431.78;5021057;28;20009;-68
2021/10/14 05:36:21;;;;;;;;;;;;;;;-144.99;100.00;52421.59;5026267;28;20019;-73
2021/10/14 05:38:48;;;;;;;;;;;;;;;-144.99;100.00;52372.69;5028644;28;20314;-74
2021/10/14 05:41:15;;;;;;;;;;;;;;;-144.99;100.00;52403.25;5027089;28;19992;-75
2021/10/14 05:43:41;;;;;;;;;;;;;;;-144.99;100.00;52340.06;5026553;28;19984;-74
2021/10/14 05:46:08;;;;;;;;;;;;;;;-144.99;100.00;52415.47;5026300;28;20036;-74
2021/10/14 05:48:36;;;;;;;;;;;;;;;-144.99;100.00;52395.09;5027193;28;20434;-74
2021/10/14 05:51:02;;;;;;;;;;;;;;;-144.99;100.00;52386.94;5022251;28;20052;-74
2021/10/14 05:53:29;;;;;;;;;;;;;;;-144.99;100.00;52395.09;5032732;28;20004;-74
2021/10/14 05:55:56;;;;;;;;;;;;;;;-144.99;100.00;52386.94;5027502;28;19977;-74
2021/10/14 05:58:23;;;;;;;;;;;;;;;-144.99;100.00;52395.09;5026671;28;19990;-74
2021/10/14 06:00:49;;;;;;;;;;;;;;;-144.99;100.00;52403.25;5028707;28;20422;-76
2021/10/14 06:03:15;;;;;;;;;;;;;;;-144.99;100.00;52407.31;5033105;28;20430;-74
2021/10/14 06:05:42;;;;;;;;;;;;;;;-144.99;100.00;52395.09;5025824;28;19997;-73
2021/10/14 06:08:08;;;;;;;;;;;;;;;-144.99;100.00;52399.19;5030677;28;20001;-73
2021/10/14 06:10:35;;;;;;;;;;;;;;;-144.99;100.00;52411.41;5020812;28;19984;-73
2021/10/14 06:13:02;;;;;;;;;;;;;;;-144.99;100.00;52401.22;5033566;28;20008;-73
2021/10/14 06:15:29;;;;;;;;;;;;;;;-144.99;100.00;52386.94;5027956;28;19981;-73
2021/10/14 06:17:55;;;;;;;;;;;;;;;-144.99;100.00;52378.78;5026911;28;20084;-73
2021/10/14 06:20:21;;;;;;;;;;;;;;;-144.99;100.00;52407.31;5022021;28;20052;-75
2021/10/14 06:22:48;;;;;;;;;;;;;;;-144.99;100.00;52366.56;5026056;28;20004;-73
2021/10/14 06:25:14;;;;;;;;;;;;;;;-144.99;100.00;52413.44;5025604;28;20209;-75
2021/10/14 06:27:41;;;;;;;;;;;;;;;-144.99;100.00;52350.25;5026534;28;20373;-75
2021/10/14 06:30:09;;;;;;;;;;;;;;;-144.99;100.00;52425.66;5027141;28;19981;-75
2021/10/14 06:32:35;;;;;;;;;;;;;;;-144.99;100.00;52403.25;5028276;28;20074;-75
2021/10/14 06:35:01;;;;;;;;;;;;;;;-144.99;100.00;52333.94;5032238;28;19981;-76
2021/10/14 06:37:28;;;;;;;;;;;;;;;-144.99;100.00;52415.47;5034033;28;19992;-75
2021/10/14 06:39:54;;;;;;;;;;;;;;;-144.99;100.00;52382.88;5035034;28;19985;-75
2021/10/14 06:42:21;;;;;;;;;;;;;;;-144.99;100.00;52415.47;5020028;28;19998;-75
2021/10/14 06:44:47;;;;;;;;;;;;;;;-144.99;100.00;52399.19;5020919;28;20073;-75
2021/10/14 06:47:15;;;;;;;;;;;;;;;-144.99;100.00;52344.16;5043013;28;19982;-75
2021/10/14 06:49:41;;;;;;;;;;;;;;;-144.99;100.00;52382.88;5034151;28;19952;-76
2021/10/14 06:52:10;;;;;;;;;;;;;;;-144.99;100.00;52421.59;5033304;28;20000;-75
2021/10/14 06:54:38;;;;;;;;;;;;;;;-144.99;100.00;52435.88;5048384;28;20051;-75
2021/10/14 06:57:07;;;;;;;;;;;;;;;-144.99;100.00;52415.47;5027764;28;19985;-75
2021/10/14 06:59:33;;;;;;;;;;;;;;;-144.99;100.00;52386.94;5015881;28;20048;-74
2021/10/14 07:02:00;;;;;;;;;;;;;;;-144.99;100.00;52399.19;5034222;28;20004;-74
2021/10/14 07:04:28;;;;;;;;;;;;;;;-144.99;100.00;52448.09;5036506;28;20401;-76
2021/10/14 07:06:54;;;;;;;;;;;;;;;-144.99;100.00;52382.88;5036894;28;20481;-76
2021/10/14 07:09:21;;;;;;;;;;;;;;;-144.99;100.00;52395.09;5049791;28;19981;-76
2021/10/14 07:11:52;;;;;;;;;;;;;;;-144.99;100.00;52393.06;5040708;28;20025;-75
2021/10/14 07:14:19;;;;;;;;;;;;;;;-144.99;100.00;52382.88;5042899;28;19981;-75
2021/10/14 07:16:45;;;;;;;;;;;;;;;-144.99;100.00;52415.47;5047292;28;19992;-75
2021/10/14 07:19:12;;;;;;;;;;;;;;;-144.99;100.00;52372.69;5034750;28;19981;-74
2021/10/14 07:21:40;;;;;;;;;;;;;;;-144.99;100.00;52378.78;5035995;28;19993;-74
2021/10/14 07:24:06;;;;;;;;;;;;;;;-144.99;100.00;52368.59;5042995;28;19981;-74
2021/10/14 07:26:32;;;;;;;;;;;;;;;-144.99;100.00;52370.63;5046166;28;20011;-74
2021/10/14 07:29:02;;;;;;;;;;;;;;;-144.99;100.00;52397.13;5033519;28;19992;-77
2021/10/14 07:31:29;;;;;;;;;;;;;;;-144.99;100.00;52388.97;5033114;28;19993;-76
2021/10/14 07:33:55;;;;;;;;;;;;;;;-144.99;100.00;52378.78;5032915;28;20472;-76
2021/10/14 07:36:22;;;;;;;;;;;;;;;-144.99;100.00;52378.78;5032942;28;19978;-76
2021/10/14 07:38:50;;;;;;;;;;;;;;;-144.99;100.00;52407.31;5034075;28;20297;-77
2021/10/14 07:41:17;;;;;;;;;;;;;;;-144.99;100.00;52386.94;5043322;28;20476;-75
2021/10/14 07:43:43;;;;;;;;;;;;;;;-144.99;100.00;52401.22;5031993;28;19981;-76
2021/10/14 07:46:10;;;;;;;;;;;;;;;-144.99;100.00;52407.31;5032510;28;19980;-77
2021/10/14 07:48:37;;;;;;;;;;;;;;;-144.99;100.00;52360.44;5034197;28;20033;-78
2021/10/14 07:51:04;;;;;;;;;;;;;;;-144.99;100.00;52399.19;5033430;28;19981;-76
2021/10/14 07:53:30;;;;;;;;;;;;;;;-144.99;100.00;52376.75;5033372;28;19974;-76
2021/10/14 07:55:58;;;;;;;;;;;;;;;-144.99;100.00;52362.50;5034993;28;19981;-78
2021/10/14 07:58:24;;;;;;;;;;;;;;;-144.99;100.00;52346.19;5033150;28;19982;-76
2021/10/14 08:00:56;;;;;;;;;;;;;;;-144.99;100.00;52325.81;5047933;28;19996;-76
2021/10/14 08:03:23;;;;;;;;;;;;;;;-144.99;100.00;52380.84;5040434;28;20691;-76
2021/10/14 08:05:52;;;;;;;;;;;;;;;-144.99;100.00;52399.19;5044720;28;20140;-75
2021/10/14 08:08:19;;;;;;;;;;;;;;;-144.99;100.00;52370.63;5030791;28;20092;-77
2021/10/14 08:10:46;;;;;;;;;;;;;;;-144.99;100.00;52419.56;5044567;28;19974;-76
2021/10/14 08:13:15;;;;;;;;;;;;;;;-144.99;100.00;52395.09;5027704;28;20111;-76
2021/10/14 08:15:49;;;;;;;;;;;;;;;-144.99;100.00;52407.31;5045816;28;19985;-75
2021/10/14 08:18:19;;;;;;;;;;;;;;;-144.99;100.00;52350.25;5043188;28;20076;-76
2021/10/14 08:20:46;;;;;;;;;;;;;;;-144.99;100.00;52374.72;5037117;28;20036;-75
2021/10/14 08:23:12;;;;;;;;;;;;;;;-144.99;100.00;52362.50;5034171;28;20023;-75
2021/10/14 08:25:39;;;;;;;;;;;;;;;-144.99;100.00;52374.72;5034780;28;20067;-75
2021/10/14 08:28:06;;;;;;;;;;;;;;;-144.99;100.00;52395.09;5034446;28;20013;-74
2021/10/14 08:30:33;;;;;;;;;;;;;;;-144.99;100.00;52378.78;5035657;28;19981;-75
2021/10/14 08:33:00;;;;;;;;;;;;;;;-144.99;100.00;52370.63;5045403;28;19997;-74
2021/10/14 08:35:26;;;;;;;;;;;;;;;-144.99;100.00;52391.03;5029744;28;19988;-74
2021/10/14 08:37:53;;;;;;;;;;;;;;;-144.99;100.00;52384.91;5044395;28;19985;-76
2021/10/14 08:40:20;;;;;;;;;;;;;;;-144.99;100.00;52386.94;5033919;28;20068;-74
2021/10/14 08:42:47;;;;;;;;;;;;;;;-144.99;100.00;52370.63;5043717;28;20115;-74
2021/10/14 08:45:14;;;;;;;;;;;;;;;-144.99;100.00;52380.84;5034562;28;19981;-74
2021/10/14 08:47:41;;;;;;;;;;;;;;;-144.99;100.00;52386.94;5042866;28;20001;-73
2021/10/14 08:50:09;;;;;;;;;;;;;;;-144.99;100.00;52386.94;5050568;28;20028;-73
2021/10/14 08:52:35;;;;;;;;;;;;;;;-144.99;100.00;52423.63;5031848;28;20001;-75
2021/10/14 08:55:01;;;;;;;;;;;;;;;-144.99;100.00;52395.09;5050043;28;19985;-74
2021/10/14 08:57:29;;;;;;;;;;;;;;;-144.99;100.00;52366.56;5052968;28;19984;-74
2021/10/14 08:59:55;;;;;;;;;;;;;;;-144.99;100.00;52366.56;5044708;28;20028;-75
2021/10/14 09:02:23;;;;;;;;;;;;;;;-144.99;100.00;52413.44;5035857;28;19997;-75
2021/10/14 09:05:03;;;;;;;;;;;;;;;-144.99;100.00;52427.72;5032360;28;20061;-74
2021/10/14 09:07:30;;;;;;;;;;;;;;;-144.99;100.00;52407.31;5046377;28;19992;-75
2021/10/14 09:09:58;;;;;;;;;;;;;;;-144.99;100.00;52362.50;5032239;28;19985;-74
2021/10/14 09:12:24;;;;;;;;;;;;;;;-144.99;100.00;52360.44;5032175;28;20024;-75
2021/10/14 09:14:56;;;;;;;;;;;;;;;-144.99;100.00;52393.06;5044215;28;20074;-75
2021/10/14 09:17:41;;;;;;;;;;;;;;;-144.99;100.00;52354.34;5044007;28;19992;-74
2021/10/14 09:23:02;;;;;;;;;;;;;;;-144.99;100.00;52370.63;5131460;27;19984;-73
2021/10/14 09:25:30;;;;;;;;;;;;;;;-144.99;100.00;52399.19;5116705;27;19980;-76
2021/10/14 09:28:05;;;;;;;;;;;;;;;-144.99;100.00;52370.63;5128876;27;19984;-75
2021/10/14 09:30:31;;;;;;;;;;;;;;;-144.99;100.00;52391.03;5129171;27;20187;-75
2021/10/14 09:32:58;;;;;;;;;;;;;;;-144.99;100.00;52354.34;5112739;27;19996;-75
2021/10/14 09:35:24;;;;;;;;;;;;;;;-144.99;100.00;52391.03;5122243;27;20063;-75
2021/10/14 09:37:51;;;;;;;;;;;;;;;-144.99;100.00;52338.03;5126417;27;20034;-75
2021/10/14 09:40:19;;;;;;;;;;;;;;;-144.99;100.00;52382.88;5111723;28;20217;-75
2021/10/14 09:42:51;;;;;;;;;;;;;;;-144.99;100.00;52374.72;5114300;27;20004;-74
2021/10/14 09:45:27;;;;;;;;;;;;;;;-144.99;100.00;52409.38;5091434;22;20469;-72
2021/10/14 09:48:08;;;;;;;;;;;;;;;-144.99;100.00;52366.56;5038660;28;19977;-72
2021/10/14 09:50:35;;;;;;;;;;;;;;;-144.99;100.00;52395.09;5032637;28;20008;-72
2021/10/14 09:53:03;;;;;;;;;;;;;;;-144.99;100.00;52380.84;5048376;28;19992;-72
2021/10/14 09:55:31;;;;;;;;;;;;;;;-144.99;100.00;52356.38;5045094;28;19985;-72
2021/10/14 09:57:59;;;;;;;;;;;;;;;-144.99;100.00;52376.75;5043694;28;20039;-73
2021/10/14 10:00:27;;;;;;;;;;;;;;;-144.99;100.00;52386.94;5046932;28;19981;-72
2021/10/14 10:02:55;;;;;;;;;;;;;;;-144.99;100.00;52378.78;5052773;28;20722;-72
2021/10/14 10:05:22;;;;;;;;;;;;;;;-144.99;100.00;52327.84;5045985;28;19978;-73
2021/10/14 10:07:50;;;;;;;;;;;;;;;-144.99;100.00;52358.41;5043036;28;19993;-73
2021/10/14 10:10:17;;;;;;;;;;;;;;;-144.99;100.00;52403.25;5037741;28;20450;-72
2021/10/14 10:12:45;;;;;;;;;;;;;;;-144.99;100.00;52382.88;5051813;28;20469;-72
2021/10/14 10:15:12;;;;;;;;;;;;;;;-144.99;100.00;52395.09;5049560;28;19988;-71
2021/10/14 10:17:39;;;;;;;;;;;;;;;-144.99;100.00;52370.63;5042942;28;20353;-72
2021/10/14 10:20:06;;;;;;;;;;;;;;;-144.99;100.00;52395.09;5042423;28;20024;-72
2021/10/14 10:22:50;;;;;;;;;;;;;;;-144.99;100.00;52378.78;5047103;28;20004;-71
2021/10/14 10:25:17;;;;;;;;;;;;;;;-144.99;100.00;52346.19;5043472;28;19973;-73
2021/10/14 10:27:45;;;;;;;;;;;;;;;-144.99;100.00;52374.72;5047243;28;20009;-72
2021/10/14 10:30:28;;;;;;;;;;;;;;;-144.99;100.00;52368.59;5043265;28;19992;-72
2021/10/14 10:32:54;;;;;;;;;;;;;;;-144.99;100.00;52395.09;5038409;28;19997;-71
2021/10/14 10:35:35;;;;;;;;;;;;;;;-144.99;100.00;52370.63;5029904;28;19977;-71
2021/10/14 10:38:12;;;;;;;;;;;;;;;-144.99;100.00;52399.19;5027220;28;19978;-72
2021/10/14 10:40:40;;;;;;;;;;;;;;;-144.99;100.00;52354.34;5029899;28;20340;-73
2021/10/14 10:43:11;;;;;;;;;;;;;;;-144.99;100.00;52362.50;5029801;28;19997;-72
2021/10/14 10:45:44;;;;;;;;;;;;;;;-144.99;100.00;52388.97;5029733;28;20084;-72
2021/10/14 10:48:11;;;;;;;;;;;;;;;-144.99;100.00;52382.88;5029226;28;19981;-74
2021/10/14 10:50:45;;;;;;;;;;;;;;;-144.99;100.00;52350.25;5029699;28;19981;-72
2021/10/14 10:53:12;;;;;;;;;;;;;;;-144.99;100.00;52370.63;5015667;28;19997;-72
2021/10/14 10:55:39;;;;;;;;;;;;;;;-144.99;100.00;52327.84;5044843;28;20000;-74
2021/10/14 10:58:09;;;;;;;;;;;;;;;-144.99;100.00;52344.16;5015236;28;20016;-73
2021/10/14 11:00:37;;;;;;;;;;;;;;;-144.99;100.00;52346.19;5028928;28;19986;-73
2021/10/14 11:03:08;;;;;;;;;;;;;;;-144.99;100.00;52391.03;5041482;28;20263;-76
2021/10/14 11:05:39;;;;;;;;;;;;;;;-144.99;100.00;52382.88;5022985;28;20486;-72
2021/10/14 11:08:05;;;;;;;;;;;;;;;-144.99;100.00;52358.41;5019241;28;20378;-73
2021/10/14 11:10:32;;;;;;;;;;;;;;;-144.99;100.00;52354.34;5029862;28;19973;-74
2021/10/14 11:12:59;;;;;;;;;;;;;;;-144.99;100.00;52362.50;5038217;28;19998;-72
2021/10/14 11:15:28;;;;;;;;;;;;;;;-144.99;100.00;52348.22;5024918;28;19994;-74
2021/10/14 11:18:00;;;;;;;;;;;;;;;-144.99;100.00;52382.88;5013612;28;20332;-74
2021/10/14 11:20:26;;;;;;;;;;;;;;;-144.99;99.37;52403.25;5023795;28;19997;-73
2021/10/14 11:22:53;;;;;;;;;;;;;;;-144.99;98.65;52370.63;5028033;28;20024;-74
2021/10/14 11:25:19;;;;;;;;;;;;;;;-144.99;98.52;52370.63;5034478;28;20329;-73
2021/10/14 11:27:59;;;;;;;;;;;;;;;-144.99;98.63;52384.91;5033203;28;19989;-73
2021/10/14 11:30:26;;;;;;;;;;;;;;;-144.99;98.74;52368.59;5018393;28;19981;-76
2021/10/14 11:32:59;;;;;;;;;;;;;;;-144.99;97.99;52362.50;5030884;28;20515;-73
2021/10/14 11:35:27;;;;;;;;;;;;;;;-144.99;97.60;52366.56;5035475;28;20584;-73
2021/10/14 11:38:05;;;;;;;;;;;;;;;-144.99;97.32;52388.97;5016874;28;19985;-73
2021/10/14 11:40:32;;;;;;;;;;;;;;;-144.99;97.09;52358.41;5034010;28;19973;-74
2021/10/14 11:42:59;;;;;;;;;;;;;;;-144.99;97.71;52354.34;5027717;28;20002;-75
2021/10/14 11:45:25;;;;;;;;;;;;;;;-144.99;96.61;52342.09;5019064;28;20318;-73
2021/10/14 11:47:51;;;;;;;;;;;;;;;-144.99;95.64;52374.72;5025903;28;19997;-74
2021/10/14 11:50:23;;;;;;;;;;;;;;;-144.99;94.44;52354.34;5023046;28;19977;-73
2021/10/14 11:52:58;;;;;;;;;;;;;;;-144.99;93.99;52342.09;5021910;28;19997;-73
2021/10/14 11:55:24;;;;;;;;;;;;;;;-144.99;94.68;52382.88;5025723;28;19977;-73
2021/10/14 11:57:51;;;;;;;;;;;;;;;-144.99;94.50;52378.78;5027991;28;20059;-74
2021/10/14 12:00:18;;;;;;;;;;;;;;;-144.99;94.87;52399.19;5022562;28;19978;-72
2021/10/14 12:02:45;;;;;;;;;;;;;;;-144.99;95.16;52362.50;5028088;28;20009;-72
2021/10/14 12:05:12;;;;;;;;;;;;;;;-144.99;95.20;52370.63;5015840;28;20512;-74
2021/10/14 12:07:43;;;;;;;;;;;;;;;-144.99;95.77;52382.88;5022884;28;20007;-73
2021/10/14 12:10:29;;;;;;;;;;;;;;;-144.99;96.31;52403.25;5027920;28;20569;-72
2021/10/14 12:13:01;;;;;;;;;;;;;;;-144.99;96.99;52407.31;5033303;28;20001;-76
2021/10/14 12:15:27;;;;;;;;;;;;;;;-144.99;97.32;52386.94;5028002;28;19988;-75
2021/10/14 12:17:54;;;;;;;;;;;;;;;-144.99;97.45;52386.94;5028409;28;19989;-75
2021/10/14 12:20:21;;;;;;;;;;;;;;;-144.99;97.05;52386.94;5029485;28;19992;-71
2021/10/14 12:22:50;;;;;;;;;;;;;;;-144.99;96.98;52407.31;5029502;28;20107;-73
2021/10/14 12:25:21;;;;;;;;;;;;;;;-144.99;97.12;52423.63;5027713;28;20374;-72